Time,TemperatureF,DewpointF,PressureIn,WindDirection,WindDirectionDegrees,WindSpeedMPH,WindSpeedGustMPH,Humidity,HourlyPrecipIn,Conditions,Clouds,dailyrainin,SoftwareType,DateUTC
2013-12-01 00:00:00,40.6,32.6,30.14,South,180,0.0,2.0,73,0.00,,---,0.00,VWS V13.01,2013-12-01 08:00:00,
2013-12-01 00:30:00,39.9,32.6,30.14,South,179,0.0,2.0,75,0.00,,---,0.00,VWS V13.01,2013-12-01 08:30:00,
2013-12-01 01:00:00,39.1,32.2,30.15,South,179,0.0,3.0,76,0.00,,---,0.00,VWS V13.01,2013-12-01 09:00:00,
2013-12-01 01:30:00,38.3,31.4,30.16,South,179,0.0,2.0,76,0.00,,---,0.00,VWS V13.01,2013-12-01 09:30:00,
2013-12-01 02:01:00,38.5,31.9,30.16,South,180,0.0,2.0,77,0.00,,---,0.00,VWS V13.01,2013-12-01 10:01:00,
2013-12-01 02:30:00,37.8,31.6,30.15,South,179,0.0,2.0,78,0.00,,---,0.00,VWS V13.01,2013-12-01 10:30:00,
2013-12-01 03:00:00,37.3,31.4,30.16,South,180,0.0,1.0,79,0.00,,---,0.00,VWS V13.01,2013-12-01 11:00:00,
2013-12-01 03:30:00,37.3,32.0,30.16,South,180,0.0,0.0,81,0.00,,---,0.00,VWS V13.01,2013-12-01 11:30:00,
2013-12-01 04:00:00,36.1,30.8,30.15,South,179,0.0,3.0,81,0.00,,---,0.00,VWS V13.01,2013-12-01 12:00:00,
2013-12-01 04:30:00,35.7,30.8,30.16,South,178,0.0,1.0,82,0.00,,---,0.00,VWS V13.01,2013-12-01 12:30:00,
2013-12-01 05:00:00,35.0,30.1,30.17,South,178,0.0,3.0,82,0.00,,---,0.00,VWS V13.01,2013-12-01 13:00:00,
2013-12-01 05:30:00,35.2,30.6,30.19,South,178,0.0,3.0,83,0.00,,---,0.00,VWS V13.01,2013-12-01 13:30:00,
2013-12-01 06:01:00,35.3,31.0,30.19,South,178,0.0,2.0,84,0.00,,---,0.00,VWS V13.01,2013-12-01 14:01:00,
2013-12-01 06:30:00,35.2,30.6,30.19,South,178,0.0,3.0,83,0.00,,---,0.00,VWS V13.01,2013-12-01 14:30:00,
2013-12-01 07:00:00,34.9,30.3,30.20,South,178,0.0,3.0,83,0.00,,---,0.00,VWS V13.01,2013-12-01 15:00:00,
2013-12-01 07:30:00,32.0,27.4,30.20,NNE,33,4.0,6.0,83,0.00,,---,0.00,VWS V13.01,2013-12-01 15:30:00,
2013-12-01 08:00:00,36.3,32.8,30.22,NNE,33,0.0,4.0,87,0.00,,---,0.00,VWS V13.01,2013-12-01 16:00:00,
2013-12-01 08:30:00,39.7,34.0,30.22,NNE,33,1.0,3.0,80,0.00,,---,0.00,VWS V13.01,2013-12-01 16:30:00,
2013-12-01 09:00:00,42.2,35.5,30.23,NNE,33,0.0,6.0,77,0.00,,---,0.00,VWS V13.01,2013-12-01 17:00:00,
2013-12-01 09:30:00,46.3,36.7,30.23,NNE,33,0.0,0.0,69,0.00,,---,0.00,VWS V13.01,2013-12-01 17:30:00,
2013-12-01 10:00:00,49.7,37.2,30.22,NNE,33,0.0,0.0,62,0.00,,---,0.00,VWS V13.01,2013-12-01 18:00:00,
2013-12-01 10:30:00,53.3,38.0,30.21,NNW,338,0.0,0.0,56,0.00,,---,0.00,VWS V13.01,2013-12-01 18:30:00,
2013-12-01 11:00:00,56.6,38.2,30.23,ESE,112,4.0,5.0,50,0.00,,---,0.00,VWS V13.01,2013-12-01 19:00:00,
2013-12-01 11:30:00,58.3,37.6,30.21,ENE,78,4.0,5.0,46,0.00,,---,0.00,VWS V13.01,2013-12-01 19:30:00,
2013-12-01 12:00:00,58.3,36.5,30.17,NE,43,2.0,6.0,44,0.00,,---,0.00,VWS V13.01,2013-12-01 20:00:00,
2013-12-01 12:30:00,60.4,36.6,30.17,NE,43,2.0,6.0,41,0.00,,---,0.00,VWS V13.01,2013-12-01 20:30:00,
2013-12-01 13:00:00,63.5,34.7,30.16,NE,43,5.0,5.0,34,0.00,,---,0.00,VWS V13.01,2013-12-01 21:00:00,
2013-12-01 13:30:00,63.9,34.3,30.14,NE,45,3.0,6.0,33,0.00,,---,0.00,VWS V13.01,2013-12-01 21:30:00,
2013-12-01 14:00:00,64.1,31.2,30.12,North,6,2.0,8.0,29,0.00,,---,0.00,VWS V13.01,2013-12-01 22:00:00,
2013-12-01 14:30:00,64.1,31.2,30.13,North,2,2.0,7.0,29,0.00,,---,0.00,VWS V13.01,2013-12-01 22:30:00,
2013-12-01 15:00:00,64.1,31.2,30.13,NNE,27,0.0,6.0,29,0.00,,---,0.00,VWS V13.01,2013-12-01 23:00:00,
2013-12-01 15:30:00,64.1,31.2,30.11,North,0,0.0,0.0,29,0.00,,---,0.00,VWS V13.01,2013-12-01 23:30:00,
2013-12-01 16:00:00,63.6,30.8,30.11,North,0,0.0,0.0,29,0.00,,---,0.00,VWS V13.01,2013-12-02 00:00:00,
2013-12-01 16:30:00,62.3,29.7,30.12,North,0,0.0,0.0,29,0.00,,---,0.00,VWS V13.01,2013-12-02 00:30:00,
2013-12-01 17:00:00,59.8,30.7,30.14,North,0,0.0,4.0,33,0.00,,---,0.00,VWS V13.01,2013-12-02 01:00:00,
2013-12-01 17:30:00,58.8,29.0,30.11,North,0,0.0,5.0,32,0.00,,---,0.00,VWS V13.01,2013-12-02 01:30:00,
2013-12-01 18:00:00,55.2,30.1,30.12,WNW,302,0.0,2.0,38,0.00,,---,0.00,VWS V13.01,2013-12-02 02:00:00,
2013-12-01 18:30:00,53.7,29.4,30.13,WNW,289,0.0,2.0,39,0.00,,---,0.00,VWS V13.01,2013-12-02 02:30:00,
2013-12-01 19:00:00,53.0,29.3,30.15,WNW,289,0.0,3.0,40,0.00,,---,0.00,VWS V13.01,2013-12-02 03:00:00,
2013-12-01 19:30:00,50.5,29.4,30.13,North,358,0.0,6.0,44,0.00,,---,0.00,VWS V13.01,2013-12-02 03:30:00,
2013-12-01 20:00:00,47.8,30.1,30.13,North,358,0.0,0.0,50,0.00,,---,0.00,VWS V13.01,2013-12-02 04:00:00,
2013-12-01 20:30:00,45.8,31.0,30.15,North,358,0.0,1.0,56,0.00,,---,0.00,VWS V13.01,2013-12-02 04:30:00,
2013-12-01 21:00:00,45.3,30.5,30.12,North,358,0.0,1.0,56,0.00,,---,0.00,VWS V13.01,2013-12-02 05:00:00,
2013-12-01 21:30:00,44.5,29.8,30.14,North,358,0.0,0.0,56,0.00,,---,0.00,VWS V13.01,2013-12-02 05:30:00,
2013-12-01 22:00:00,42.6,29.7,30.15,North,358,0.0,1.0,60,0.00,,---,0.00,VWS V13.01,2013-12-02 06:00:00,
2013-12-01 22:30:00,40.7,29.1,30.14,North,359,0.0,2.0,63,0.00,,---,0.00,VWS V13.01,2013-12-02 06:30:00,
2013-12-01 23:00:00,40.4,30.0,30.14,North,358,0.0,0.0,66,0.00,,---,0.00,VWS V13.01,2013-12-02 07:00:00,
2013-12-01 23:30:00,40.2,29.8,30.15,North,358,0.0,2.0,66,0.00,,---,0.00,VWS V13.01,2013-12-02 07:30:00,